Yellowstone Natl Park, WY

12:20 PM MDT on April 25, 2017 (GMT -0600)
Yellowstone | | Change Station
Active Advisory: Winter Weather Statement

Elev 6650 ft 44.69 °N, 111.12 °W | Updated 10 minutes ago

Overcast
Overcast
39 °F
Feels Like 32 °F
N
10
Wind Variable Wind from NNE

Today
High -- | Low -- °F
--% Chance of Precip.
Yesterday
High -- | Low -- °F
Precip. -- in
Pressure 29.77 in
Visibility 10.0 miles
Clouds Few 3300 ft
Few 4400 ft
Mostly Cloudy 7000 ft
Windchill 32 °F
Dew Point 27 °F
Humidity 61%
Rainfall 0.37 in
Snow Depth Not available.
6:21 AM 8:19 PM
Waning Crescent, 1% visible
METAR KWYS 251810Z AUTO 02009KT 10SM FEW033 FEW044 BKN070 04/M03 A2977 RMK AO2
Pressure 29.77 in
Visibility 10.0 miles
Clouds Few 3300 ft
Few 4400 ft
Mostly Cloudy 7000 ft
Windchill 32 °F
Dew Point 27 °F
Humidity 61%
Rainfall 0.37 in
Snow Depth Not available.
6:21 AM 8:19 PM
Waning Crescent, 1% visible
METAR KWYS 251810Z AUTO 02009KT 10SM FEW033 FEW044 BKN070 04/M03 A2977 RMK AO2

Get Your Daily Forecast Email!

Thanks for signing up!

Be on the lookout for a verification email in your inbox.

You'll start receiving severe weather alerts in your inbox..

×

10-Day Weather Forecast

Almanac

Astronomy

Apr. 25, 2017 Rise Set
Actual Time
Civil Twilight
Nautical Twilight
Astronomical Twilight
Moon
Length of Visible Light
Length of Day
Tomorrow will be .
, % of the Moon is Illuminated

Today's Extremes

State Highs State Lows

Community

WunderPhotos

WunderBlog® & News

Nearby

Air Quality

  Air Quality AQ Index Pollutant
Not available.

Snow Depth

Station Depth Elevation

Earthquake Activity

City Distance Mag. Time & Date
Minimum magnitude displayed is 2.5.

Coastal Water Temperatures

Place Temperature

Stations

Nearby Weather Stations

Station Location Temp. Windchill Dew Point Humidity Wind Precip. Elev Updated Type
                   

Watches & Warnings

Winter Weather Statement
Issued: 12:14 PM MDT Apr. 25, 2017 – National Weather Service

... Winter Weather Advisory has expired...

The Winter Weather Advisory has expired.